createdAt,value
2022-11-04T00:01:57.739Z,8.15
2022-11-04T00:04:27.120Z,15.43
2022-11-04T00:06:55.858Z,14.82
2022-11-04T00:09:38.897Z,14.48
2022-11-04T00:12:24.666Z,13.00
2022-11-04T00:14:53.246Z,12.43
2022-11-04T00:17:21.821Z,11.15
2022-11-04T00:20:11.495Z,11.55
2022-11-04T00:22:58.959Z,12.27
2022-11-04T00:25:45.049Z,13.52
2022-11-04T00:28:33.979Z,15.75
2022-11-04T00:31:23.261Z,15.40
2022-11-04T00:33:52.660Z,16.38
2022-11-04T00:36:19.691Z,18.20
2022-11-04T00:38:47.149Z,16.30
2022-11-04T00:41:26.462Z,14.90
2022-11-04T00:44:01.433Z,15.50
2022-11-04T00:46:29.743Z,16.33
2022-11-04T00:48:56.936Z,15.57
2022-11-04T00:51:24.195Z,14.32
2022-11-04T00:53:51.738Z,14.23
2022-11-04T00:56:18.817Z,15.50
2022-11-04T00:58:45.652Z,13.20
2022-11-04T01:01:18.277Z,11.27
2022-11-04T01:03:47.744Z,11.02
2022-11-04T01:06:14.776Z,10.68
2022-11-04T01:08:44.291Z,11.68
2022-11-04T01:11:12.369Z,12.32
2022-11-04T01:13:40.637Z,12.02
2022-11-04T01:16:11.107Z,11.77
2022-11-04T01:18:40.560Z,11.15
2022-11-04T01:21:13.147Z,11.13
2022-11-04T01:23:43.481Z,9.70
2022-11-04T01:26:17.710Z,10.05
2022-11-04T01:28:45.028Z,8.50
2022-11-04T01:31:16.317Z,9.18
2022-11-04T01:33:45.005Z,8.55
2022-11-04T01:36:12.067Z,7.82
2022-11-04T01:38:39.564Z,7.22
2022-11-04T01:41:07.791Z,7.40
2022-11-04T01:43:52.012Z,6.93
2022-11-04T01:46:42.190Z,6.75
2022-11-04T01:49:24.017Z,5.88
2022-11-04T01:51:55.062Z,7.10
2022-11-04T01:54:22.265Z,6.80
2022-11-04T01:56:49.926Z,7.47
2022-11-04T01:59:23.112Z,7.00
2022-11-04T02:01:49.939Z,8.00
2022-11-04T02:04:26.785Z,7.32
2022-11-04T02:07:00.565Z,6.72
2022-11-04T02:09:29.994Z,6.28
2022-11-04T02:12:15.807Z,7.57
2022-11-04T02:14:44.607Z,6.55
2022-11-04T02:17:18.828Z,6.80
2022-11-04T02:20:03.959Z,6.78
2022-11-04T02:23:01.732Z,5.35
2022-11-04T02:26:03.989Z,5.25
2022-11-04T02:29:04.992Z,4.68
2022-11-04T02:31:52.565Z,4.90
2022-11-04T02:34:38.073Z,4.70
2022-11-04T02:37:04.947Z,4.00
2022-11-04T02:39:47.371Z,3.90
2022-11-04T02:42:25.532Z,3.80
2022-11-04T02:45:00.706Z,4.00
2022-11-04T02:47:31.353Z,3.90
2022-11-04T02:50:04.893Z,3.45
2022-11-04T02:52:51.591Z,3.78
2022-11-04T02:55:27.126Z,3.63
2022-11-04T02:57:58.958Z,3.95
2022-11-04T03:00:26.289Z,4.13
2022-11-04T03:03:18.127Z,4.57
2022-11-04T03:05:48.584Z,4.15
2022-11-04T03:08:24.006Z,3.97
2022-11-04T03:10:58.428Z,4.38
2022-11-04T03:13:43.218Z,4.03
2022-11-04T03:16:20.253Z,4.20
2022-11-04T03:19:02.098Z,4.03
2022-11-04T03:21:32.903Z,3.90
2022-11-04T03:24:04.042Z,3.95
2022-11-04T03:26:41.583Z,3.83
2022-11-04T03:29:32.965Z,4.45
2022-11-04T03:32:18.484Z,4.28
2022-11-04T03:34:45.274Z,4.00
2022-11-04T03:37:12.322Z,3.97
2022-11-04T03:39:39.865Z,3.97
2022-11-04T03:42:30.792Z,3.63
2022-11-04T03:44:58.544Z,3.63
2022-11-04T03:47:28.199Z,3.90
2022-11-04T03:50:06.439Z,3.70
2022-11-04T03:52:33.838Z,4.30
2022-11-04T03:55:00.472Z,3.42
2022-11-04T03:57:39.741Z,3.65
2022-11-04T04:00:12.634Z,3.35
2022-11-04T04:02:54.913Z,3.53
2022-11-04T04:05:43.791Z,3.58
2022-11-04T04:08:35.984Z,3.50
2022-11-04T04:11:32.869Z,3.30
2022-11-04T04:14:08.904Z,3.55
2022-11-04T04:16:43.785Z,3.30
2022-11-04T04:19:14.703Z,3.47
2022-11-04T04:22:01.134Z,3.88
2022-11-04T04:24:52.852Z,3.20
2022-11-04T04:27:33.802Z,3.08
2022-11-04T04:30:05.473Z,2.88
2022-11-04T04:32:45.003Z,2.95
2022-11-04T04:35:30.883Z,3.22
2022-11-04T04:38:21.928Z,3.30
2022-11-04T04:41:18.075Z,2.83
2022-11-04T04:44:03.365Z,3.17
2022-11-04T04:46:31.411Z,2.95
2022-11-04T04:49:09.740Z,2.78
2022-11-04T04:51:41.355Z,2.80
2022-11-04T04:54:11.459Z,2.90
2022-11-04T04:56:38.294Z,2.92
2022-11-04T04:59:05.620Z,2.85
2022-11-04T05:01:33.664Z,2.72
2022-11-04T05:04:00.848Z,2.80
2022-11-04T05:06:27.977Z,2.80
2022-11-04T05:08:54.921Z,2.90
2022-11-04T05:11:24.551Z,2.50
2022-11-04T05:13:54.851Z,2.78
2022-11-04T05:16:21.673Z,2.72
2022-11-04T05:18:48.760Z,3.05
2022-11-04T05:21:19.372Z,3.20
2022-11-04T05:23:45.999Z,3.20
2022-11-04T05:26:13.987Z,3.45
2022-11-04T05:28:40.998Z,3.65
2022-11-04T05:31:08.914Z,3.78
2022-11-04T05:33:35.780Z,3.30
2022-11-04T05:36:13.088Z,3.42
2022-11-04T05:38:40.623Z,3.25
2022-11-04T05:41:09.658Z,3.10
2022-11-04T05:43:36.763Z,3.53
2022-11-04T05:46:04.313Z,3.75
2022-11-04T05:48:32.382Z,4.18
2022-11-04T05:51:00.778Z,3.80
2022-11-04T05:55:54.444Z,3.70
2022-11-04T05:58:23.584Z,3.40
2022-11-04T06:00:50.423Z,3.78
2022-11-04T06:03:17.440Z,3.42
2022-11-04T06:05:44.327Z,4.00
2022-11-04T06:08:11.587Z,3.78
2022-11-04T06:10:45.937Z,3.65
2022-11-04T06:13:14.146Z,3.67
2022-11-04T06:15:41.220Z,3.92
2022-11-04T06:18:10.165Z,3.83
2022-11-04T06:20:40.205Z,4.13
2022-11-04T06:23:07.034Z,4.22
2022-11-04T06:25:33.977Z,4.13
2022-11-04T06:28:00.754Z,4.88
2022-11-04T06:30:27.826Z,4.05
2022-11-04T06:32:54.757Z,4.07
2022-11-04T06:35:21.684Z,3.70
2022-11-04T06:37:48.500Z,3.55
2022-11-04T06:40:15.372Z,4.43
2022-11-04T06:42:45.219Z,3.70
2022-11-04T06:45:12.133Z,4.57
2022-11-04T06:47:39.330Z,4.07
2022-11-04T06:50:09.157Z,4.38
2022-11-04T06:52:42.003Z,4.32
2022-11-04T06:55:10.021Z,4.20
2022-11-04T06:57:36.853Z,3.80
2022-11-04T07:00:04.651Z,4.20
2022-11-04T07:02:31.409Z,4.38
2022-11-04T07:07:25.255Z,5.07
2022-11-04T07:09:52.398Z,6.22
2022-11-04T07:12:19.141Z,7.32
2022-11-04T07:14:45.944Z,7.88
2022-11-04T07:17:14.098Z,16.75
2022-11-04T07:19:42.043Z,16.33
2022-11-04T07:22:08.861Z,19.90
2022-11-04T07:24:35.965Z,12.00
2022-11-04T07:27:07.711Z,8.00
2022-11-04T07:29:34.934Z,11.60
2022-11-04T07:32:01.785Z,11.25
2022-11-04T07:34:28.881Z,6.97
2022-11-04T07:36:55.713Z,7.03
2022-11-04T07:39:22.589Z,5.43
2022-11-04T07:41:49.723Z,5.10
2022-11-04T07:44:16.455Z,4.57
2022-11-04T07:46:43.168Z,6.10
2022-11-04T07:49:09.890Z,4.22
2022-11-04T07:51:36.672Z,5.93
2022-11-04T07:54:03.484Z,5.72
2022-11-04T07:56:30.358Z,5.10
2022-11-04T07:58:57.671Z,4.80
2022-11-04T08:01:25.728Z,5.43
2022-11-04T08:03:53.233Z,5.57
2022-11-04T08:06:20.840Z,4.95
2022-11-04T08:08:48.877Z,5.32
2022-11-04T08:11:19.875Z,5.20
2022-11-04T08:13:47.656Z,5.03
2022-11-04T08:16:23.487Z,5.15
2022-11-04T08:18:52.891Z,5.05
2022-11-04T08:21:20.934Z,5.80
2022-11-04T08:23:48.504Z,5.35
2022-11-04T08:26:17.990Z,5.45
2022-11-04T08:28:45.448Z,5.15
2022-11-04T08:31:30.168Z,5.28
2022-11-04T08:33:57.765Z,6.13
2022-11-04T08:36:31.221Z,5.80
2022-11-04T08:38:58.712Z,5.60
2022-11-04T08:41:31.708Z,6.00
2022-11-04T08:44:01.201Z,5.80
2022-11-04T08:46:29.480Z,5.93
2022-11-04T08:48:56.779Z,6.55
2022-11-04T08:51:25.944Z,6.80
2022-11-04T08:53:54.206Z,6.35
2022-11-04T08:56:30.065Z,5.95
2022-11-04T08:58:59.148Z,5.90
2022-11-04T09:01:34.399Z,6.72
2022-11-04T09:04:05.955Z,6.20
2022-11-04T09:06:37.674Z,6.35
2022-11-04T09:09:06.907Z,6.63
2022-11-04T09:11:38.616Z,7.38
2022-11-04T09:14:06.243Z,6.95
2022-11-04T09:16:34.769Z,6.53
2022-11-04T09:19:04.880Z,7.35
2022-11-04T09:21:34.226Z,7.32
2022-11-04T09:24:01.202Z,6.25
2022-11-04T09:26:28.291Z,6.13
2022-11-04T09:28:56.643Z,6.90
2022-11-04T09:31:24.773Z,5.90
2022-11-04T09:33:55.598Z,6.80
2022-11-04T09:36:23.474Z,6.70
2022-11-04T09:38:53.742Z,6.18
2022-11-04T09:41:33.182Z,6.70
2022-11-04T09:44:24.743Z,6.95
2022-11-04T09:47:01.592Z,6.68
2022-11-04T09:49:36.850Z,7.30
2022-11-04T09:52:15.267Z,7.03
2022-11-04T09:54:55.184Z,8.27
2022-11-04T09:57:25.225Z,8.05
2022-11-04T09:59:55.454Z,7.13
2022-11-04T10:02:45.692Z,8.57
2022-11-04T10:05:35.034Z,9.45
2022-11-04T10:08:43.913Z,8.82
2022-11-04T10:11:27.892Z,9.65
2022-11-04T10:14:25.106Z,9.70
2022-11-04T10:17:21.166Z,11.38
2022-11-04T10:20:33.044Z,12.65
2022-11-04T10:23:20.706Z,13.32
2022-11-04T10:25:55.038Z,12.05
2022-11-04T10:28:44.066Z,15.18
2022-11-04T10:31:19.822Z,15.57
2022-11-04T10:34:03.708Z,14.50
2022-11-04T10:36:34.202Z,12.60
2022-11-04T10:39:13.447Z,12.13
2022-11-04T10:41:41.513Z,14.88
2022-11-04T10:44:20.423Z,14.57
2022-11-04T10:47:06.968Z,12.52
2022-11-04T10:50:27.703Z,12.63
2022-11-04T10:53:10.807Z,11.45
2022-11-04T10:55:51.678Z,12.25
2022-11-04T10:58:30.685Z,13.55
2022-11-04T11:01:25.918Z,13.32
2022-11-04T11:04:24.045Z,13.23
2022-11-04T11:06:53.410Z,13.32
2022-11-04T11:09:53.971Z,12.18
2022-11-04T11:12:55.871Z,12.02
2022-11-04T11:15:38.341Z,11.98
2022-11-04T11:18:08.170Z,11.98
2022-11-04T11:20:41.225Z,11.05
2022-11-04T11:23:39.560Z,9.77
2022-11-04T11:26:11.485Z,9.65
2022-11-04T11:28:59.079Z,9.80
2022-11-04T11:31:42.535Z,11.98
2022-11-04T11:34:26.753Z,10.52
2022-11-04T11:37:00.787Z,8.70
2022-11-04T11:39:35.047Z,8.63
2022-11-04T11:42:09.464Z,8.35
2022-11-04T11:44:46.962Z,8.57
2022-11-04T11:47:45.022Z,8.93
2022-11-04T11:50:47.569Z,8.38
2022-11-04T11:53:25.280Z,6.65
2022-11-04T11:57:07.238Z,6.70
2022-11-04T12:03:13.501Z,7.57
2022-11-04T12:06:21.285Z,6.85
2022-11-04T12:09:31.434Z,6.97
2022-11-04T12:12:26.406Z,8.10
2022-11-04T12:15:09.901Z,6.95
2022-11-04T12:18:17.654Z,7.57
2022-11-04T12:21:23.238Z,7.45
2022-11-04T12:24:35.148Z,8.27
2022-11-04T12:27:18.362Z,9.02
2022-11-04T12:30:16.948Z,9.07
2022-11-04T12:33:11.076Z,10.00
2022-11-04T12:35:54.149Z,9.60
2022-11-04T12:38:24.243Z,9.18
2022-11-04T12:41:52.829Z,9.45
2022-11-04T12:44:28.755Z,10.00
2022-11-04T12:47:21.779Z,8.90
2022-11-04T12:50:33.204Z,6.47
2022-11-04T12:53:40.982Z,7.28
2022-11-04T12:56:41.678Z,7.75
2022-11-04T12:59:42.882Z,7.05
2022-11-04T13:02:25.520Z,7.65
2022-11-04T13:05:30.878Z,7.00
2022-11-04T13:08:54.251Z,6.30
2022-11-04T13:11:41.332Z,8.00
2022-11-04T13:14:32.997Z,7.47
2022-11-04T13:17:16.020Z,5.30
2022-11-04T13:19:50.680Z,6.25
2022-11-04T13:22:26.908Z,6.25
2022-11-04T13:25:12.618Z,5.85
2022-11-04T13:27:50.475Z,5.40
2022-11-04T13:30:46.001Z,4.68
2022-11-04T13:33:40.782Z,4.82
2022-11-04T13:36:28.931Z,4.07
2022-11-04T13:39:07.501Z,4.53
2022-11-04T13:42:08.805Z,4.78
2022-11-04T13:47:47.233Z,3.70
2022-11-04T13:50:35.611Z,3.97
2022-11-04T13:56:09.485Z,4.88
2022-11-04T14:02:09.988Z,4.10
2022-11-04T14:04:41.941Z,4.60
2022-11-04T14:07:18.247Z,4.82
2022-11-04T14:09:57.106Z,5.55
2022-11-04T14:12:33.698Z,5.72
2022-11-04T14:15:13.290Z,5.85
2022-11-04T14:17:42.610Z,6.03
2022-11-04T14:21:17.618Z,4.75
2022-11-04T14:24:03.319Z,2.13
2022-11-04T14:26:43.565Z,1.77
2022-11-04T14:29:20.558Z,1.33
2022-11-04T14:32:02.899Z,1.27
2022-11-04T14:34:44.594Z,1.52
2022-11-04T14:37:35.653Z,2.28
2022-11-04T14:40:14.719Z,1.95
2022-11-04T14:42:59.389Z,1.73
2022-11-04T14:45:39.122Z,1.45
2022-11-04T14:48:18.171Z,2.13
2022-11-04T14:50:51.868Z,2.00
2022-11-04T14:53:30.494Z,2.17
2022-11-04T14:56:22.971Z,1.90
2022-11-04T14:59:04.250Z,2.10
2022-11-04T15:01:40.231Z,2.80
2022-11-04T15:04:27.883Z,2.05
2022-11-04T15:07:21.399Z,2.58
2022-11-04T15:09:50.449Z,2.75
2022-11-04T15:12:39.264Z,2.80
2022-11-04T15:15:50.951Z,3.13
2022-11-04T15:18:31.790Z,2.83
2022-11-04T15:21:03.130Z,4.20
2022-11-04T15:23:34.612Z,3.10
2022-11-04T15:26:02.984Z,2.83
2022-11-04T15:28:49.706Z,3.20
2022-11-04T15:31:38.269Z,3.63
2022-11-04T15:34:14.211Z,3.20
2022-11-04T15:36:44.626Z,2.75
2022-11-04T15:39:25.788Z,2.87
2022-11-04T15:42:19.353Z,2.85
2022-11-04T15:44:57.439Z,3.22
2022-11-04T15:47:39.415Z,2.80
2022-11-04T15:50:34.676Z,3.00
2022-11-04T15:53:06.778Z,3.75
2022-11-04T15:55:52.645Z,3.10
2022-11-04T15:58:35.613Z,2.50
2022-11-04T16:01:17.991Z,2.85
2022-11-04T16:03:56.886Z,2.50
2022-11-04T16:06:35.419Z,2.65
2022-11-04T16:09:28.256Z,3.08
2022-11-04T16:12:19.191Z,3.17
2022-11-04T16:14:54.153Z,3.58
2022-11-04T16:17:22.947Z,4.53
2022-11-04T16:20:08.576Z,4.72
2022-11-04T16:22:43.826Z,3.30
2022-11-04T16:25:22.736Z,3.58
2022-11-04T16:30:38.996Z,4.70
2022-11-04T16:33:25.763Z,3.63
2022-11-04T16:35:57.617Z,3.65
2022-11-04T16:41:18.406Z,3.35
2022-11-04T16:43:56.230Z,3.92
2022-11-04T16:46:32.256Z,3.97
2022-11-04T16:49:06.762Z,3.92
2022-11-04T16:51:43.895Z,3.85
2022-11-04T16:54:14.467Z,4.10
2022-11-04T16:56:41.860Z,3.70
2022-11-04T16:59:30.261Z,3.80
2022-11-04T17:02:28.661Z,3.17
2022-11-04T17:05:00.511Z,3.45
2022-11-04T17:07:55.554Z,3.20
2022-11-04T17:10:30.355Z,3.58
2022-11-04T17:13:12.234Z,3.90
2022-11-04T17:15:42.141Z,4.05
2022-11-04T17:18:21.638Z,6.97
2022-11-04T17:21:14.900Z,6.57
2022-11-04T17:23:56.413Z,4.80
2022-11-04T17:26:35.125Z,3.83
2022-11-04T17:29:14.445Z,4.32
2022-11-04T17:32:00.458Z,4.40
2022-11-04T17:34:43.190Z,4.53
2022-11-04T17:37:34.774Z,4.78
2022-11-04T17:41:16.465Z,4.03
2022-11-04T17:44:19.360Z,4.18
2022-11-04T17:47:12.820Z,4.78
2022-11-04T17:49:43.606Z,5.00
2022-11-04T17:52:16.991Z,5.75
2022-11-04T17:54:53.728Z,6.53
2022-11-04T17:58:09.581Z,6.07
2022-11-04T18:01:21.968Z,5.72
2022-11-04T18:03:56.130Z,6.40
2022-11-04T18:06:25.014Z,9.45
2022-11-04T18:09:27.606Z,6.72
2022-11-04T18:12:26.520Z,6.18
2022-11-04T18:16:35.322Z,6.18
2022-11-04T18:24:47.957Z,4.88
2022-11-04T18:31:52.954Z,5.20
2022-11-04T18:35:34.867Z,5.68
2022-11-04T18:42:02.241Z,5.55
2022-11-04T18:49:01.807Z,5.00
2022-11-04T18:52:41.045Z,5.78
2022-11-04T18:55:30.860Z,6.68
2022-11-04T18:58:39.164Z,6.07
2022-11-04T19:05:15.916Z,6.60
2022-11-04T19:08:22.121Z,6.03
2022-11-04T19:11:32.259Z,5.15
2022-11-04T19:14:24.889Z,6.00
2022-11-04T19:20:59.664Z,5.32
2022-11-04T19:25:23.810Z,5.75
2022-11-04T19:32:05.493Z,5.25
2022-11-04T19:34:56.170Z,4.85
2022-11-04T19:41:48.680Z,5.90
2022-11-04T19:46:36.907Z,5.47
2022-11-04T19:48:11.499Z,5.95
2022-11-04T19:51:10.946Z,5.50
2022-11-04T19:58:41.320Z,8.35
2022-11-04T20:02:22.476Z,6.72
2022-11-04T20:05:23.314Z,6.75
2022-11-04T20:08:16.163Z,7.38
2022-11-04T20:10:50.813Z,7.35
2022-11-04T20:14:40.084Z,9.77
2022-11-04T20:17:51.983Z,12.18
2022-11-04T20:21:13.752Z,8.18
2022-11-04T20:24:15.242Z,8.10
2022-11-04T20:27:19.046Z,11.48
2022-11-04T20:29:53.807Z,8.75
2022-11-04T20:32:45.192Z,9.85
2022-11-04T20:35:24.948Z,9.13
2022-11-04T20:38:32.405Z,9.57
2022-11-04T20:41:19.496Z,7.90
2022-11-04T20:44:17.449Z,8.07
2022-11-04T20:47:11.172Z,7.68
2022-11-04T20:49:48.650Z,8.98
2022-11-04T20:59:23.529Z,7.15
2022-11-04T21:02:00.840Z,7.05
2022-11-04T21:04:36.599Z,7.60
2022-11-04T21:13:35.970Z,6.65
2022-11-04T21:17:00.055Z,5.18
2022-11-04T21:32:47.772Z,1.98
2022-11-04T21:36:29.262Z,1.83
2022-11-04T21:42:41.457Z,2.40
2022-11-04T21:45:21.435Z,2.75
2022-11-04T21:48:05.404Z,3.47
2022-11-04T21:51:33.316Z,4.20
2022-11-04T21:54:19.553Z,4.28
2022-11-04T21:57:14.993Z,4.88
2022-11-04T22:04:00.457Z,5.50
2022-11-04T22:07:01.536Z,5.28
2022-11-04T22:09:48.588Z,6.07
2022-11-04T22:19:27.448Z,5.43
2022-11-04T22:22:29.016Z,6.55
2022-11-04T22:25:29.267Z,6.05
2022-11-04T22:28:26.151Z,6.07
2022-11-04T22:31:32.866Z,6.47
2022-11-04T22:40:45.623Z,5.72
2022-11-04T22:43:45.095Z,6.15
2022-11-04T22:46:27.552Z,6.88
2022-11-04T22:49:15.000Z,5.80
2022-11-04T22:51:55.666Z,6.20
2022-11-04T22:54:41.736Z,6.28
2022-11-04T22:57:32.965Z,7.30
2022-11-04T23:00:09.771Z,6.93
2022-11-04T23:02:54.861Z,7.25
2022-11-04T23:05:49.375Z,6.40
2022-11-04T23:08:29.769Z,7.30
2022-11-04T23:11:44.060Z,6.63
2022-11-04T23:15:48.817Z,6.78
2022-11-04T23:22:10.045Z,5.20
2022-11-04T23:28:32.565Z,4.85
2022-11-04T23:31:35.958Z,5.20
2022-11-04T23:35:10.653Z,5.00
2022-11-04T23:38:35.870Z,5.43
2022-11-04T23:41:34.791Z,5.60
2022-11-04T23:44:01.929Z,5.30
2022-11-04T23:46:57.878Z,5.88
2022-11-04T23:49:44.189Z,5.57
2022-11-04T23:52:29.650Z,5.43
2022-11-04T23:55:15.384Z,5.20
2022-11-04T23:58:02.238Z,5.63
